Time;durP1;ratioP1;P1;durP2;ratioP2;P2;SDS_P1;SDS_P2;PMS_P1;PMS_P2;Temp;Humidity;BMP_temperature;BMP_pressure;BME280_temperature;BME280_humidity;BME280_pressure;Samples;Min_cycle;Max_cycle;Signal;HPM_P1;HPM_P2
2021/04/04 00:00:50;;;;;;;7.13;2.08;;;6.00;99.90;;;;;;5047717;28;20040;-70
2021/04/04 00:03:16;;;;;;;4.47;1.58;;;6.00;99.90;;;;;;5046333;28;20159;-71
2021/04/04 00:05:41;;;;;;;12.50;2.22;;;6.00;99.90;;;;;;5051471;28;20041;-71
2021/04/04 00:08:07;;;;;;;14.18;2.33;;;6.00;99.90;;;;;;5067842;28;20037;-71
2021/04/04 00:10:33;;;;;;;11.98;2.55;;;6.00;99.90;;;;;;5067529;28;20036;-72
2021/04/04 00:12:58;;;;;;;2.72;1.17;;;6.00;99.90;;;;;;5067552;28;20060;-72
2021/04/04 00:15:24;;;;;;;16.80;2.10;;;6.00;99.90;;;;;;5067584;28;20009;-72
2021/04/04 00:17:50;;;;;;;3.28;1.38;;;6.10;99.90;;;;;;5065852;28;20076;-71
2021/04/04 00:20:18;;;;;;;7.53;1.48;;;5.90;99.90;;;;;;5065935;28;20039;-71
2021/04/04 00:22:45;;;;;;;10.95;2.63;;;6.00;99.90;;;;;;5065961;28;20463;-72
2021/04/04 00:25:13;;;;;;;5.28;2.20;;;6.10;99.90;;;;;;5061105;28;20049;-73
2021/04/04 00:27:38;;;;;;;3.40;1.70;;;5.90;99.90;;;;;;5047286;28;20048;-72
2021/04/04 00:30:12;;;;;;;7.40;1.60;;;6.00;99.90;;;;;;5067347;28;20454;-70
2021/04/04 00:32:39;;;;;;;13.00;1.75;;;6.00;99.90;;;;;;5049200;28;20093;-71
2021/04/04 00:35:11;;;;;;;5.38;2.03;;;6.10;99.90;;;;;;5047944;28;20064;-70
2021/04/04 00:37:37;;;;;;;4.63;1.85;;;6.00;99.90;;;;;;5047185;28;20029;-69
2021/04/04 00:40:25;;;;;;;3.67;1.58;;;6.00;99.90;;;;;;5045583;28;20057;-71
2021/04/04 00:42:51;;;;;;;13.07;1.55;;;6.00;99.90;;;;;;5065930;28;20375;-71
2021/04/04 00:45:24;;;;;;;14.50;2.05;;;6.00;99.90;;;;;;5066733;28;20077;-70
2021/04/04 00:47:51;;;;;;;8.32;1.70;;;6.00;99.90;;;;;;5067128;28;20466;-71
2021/04/04 00:50:19;;;;;;;7.32;1.80;;;6.00;99.90;;;;;;5066762;28;20025;-70
2021/04/04 00:52:45;;;;;;;2.92;1.27;;;6.00;99.90;;;;;;5066698;28;20029;-71
2021/04/04 00:55:12;;;;;;;3.40;1.38;;;6.00;99.90;;;;;;5065187;28;20032;-71
2021/04/04 00:57:40;;;;;;;2.10;1.08;;;6.10;99.90;;;;;;5066455;28;20033;-71
2021/04/04 01:00:11;;;;;;;4.70;2.38;;;6.10;99.90;;;;;;5066312;28;20029;-71
2021/04/04 01:02:40;;;;;;;6.72;1.80;;;6.10;99.90;;;;;;5066797;28;20033;-71
2021/04/04 01:05:08;;;;;;;4.90;1.83;;;6.10;99.90;;;;;;5046037;28;20025;-71
2021/04/04 01:07:35;;;;;;;15.55;2.22;;;6.10;99.90;;;;;;5046663;28;20029;-71
2021/04/04 01:10:04;;;;;;;8.60;2.17;;;6.20;99.90;;;;;;5047028;28;20025;-72
2021/04/04 01:12:48;;;;;;;7.45;1.38;;;6.10;99.90;;;;;;5046425;28;20029;-73
2021/04/04 01:15:20;;;;;;;7.20;2.15;;;6.20;99.90;;;;;;5046028;28;20401;-71
2021/04/04 01:17:49;;;;;;;11.60;1.88;;;6.20;99.90;;;;;;5065936;28;20044;-72
2021/04/04 01:20:22;;;;;;;12.70;3.67;;;6.10;99.90;;;;;;5065800;28;20021;-74
2021/04/04 01:22:57;;;;;;;12.77;2.05;;;6.10;99.90;;;;;;5066044;28;20021;-75
2021/04/04 01:25:42;;;;;;;12.07;2.33;;;6.10;99.90;;;;;;5064961;28;20037;-72
2021/04/04 01:28:17;;;;;;;4.05;1.17;;;6.10;99.90;;;;;;5066052;28;20025;-72
2021/04/04 01:30:45;;;;;;;6.28;1.52;;;6.10;99.90;;;;;;5066296;28;20120;-72
2021/04/04 01:33:14;;;;;;;2.95;1.23;;;6.10;99.90;;;;;;5065146;28;20025;-71
2021/04/04 01:35:47;;;;;;;5.63;1.40;;;6.10;99.90;;;;;;5066044;28;20039;-72
2021/04/04 01:38:19;;;;;;;6.03;1.38;;;6.10;99.90;;;;;;5064458;28;20036;-72
2021/04/04 01:40:47;;;;;;;6.22;1.83;;;6.00;99.90;;;;;;5053450;28;20034;-72
2021/04/04 01:43:15;;;;;;;7.35;2.38;;;6.00;99.90;;;;;;5044331;28;20021;-72
2021/04/04 01:45:42;;;;;;;6.90;1.58;;;6.00;99.90;;;;;;5045657;28;20033;-73
2021/04/04 01:48:13;;;;;;;4.85;1.60;;;6.00;99.90;;;;;;5044985;28;20029;-75
2021/04/04 01:50:43;;;;;;;2.08;1.35;;;6.00;99.90;;;;;;5045656;28;20033;-72
2021/04/04 01:53:10;;;;;;;5.43;1.70;;;6.00;99.90;;;;;;5045787;28;20025;-72
2021/04/04 01:55:38;;;;;;;9.07;1.58;;;6.00;99.90;;;;;;5045295;28;20112;-73
2021/04/04 01:58:07;;;;;;;9.75;2.35;;;5.90;99.90;;;;;;5045590;28;20026;-71
2021/04/04 02:00:33;;;;;;;2.63;1.02;;;5.90;99.90;;;;;;5045700;28;20025;-74
2021/04/04 02:03:01;;;;;;;14.00;1.77;;;5.90;99.90;;;;;;5045453;28;20037;-75
2021/04/04 02:05:27;;;;;;;8.73;1.92;;;5.90;99.90;;;;;;5044224;28;20033;-73
2021/04/04 02:07:54;;;;;;;10.68;2.45;;;5.90;99.90;;;;;;5045721;28;20144;-72
2021/04/04 02:10:26;;;;;;;4.50;1.35;;;5.90;99.90;;;;;;5045283;28;20097;-70
2021/04/04 02:12:53;;;;;;;9.93;2.10;;;5.90;99.90;;;;;;5045440;28;20026;-72
2021/04/04 02:15:21;;;;;;;8.30;2.13;;;6.00;99.90;;;;;;5045201;28;20030;-72
2021/04/04 02:17:48;;;;;;;4.93;1.63;;;5.90;99.90;;;;;;5044813;28;20034;-71
2021/04/04 02:20:20;;;;;;;3.67;1.38;;;6.00;99.90;;;;;;5043782;28;20410;-72
2021/04/04 02:22:47;;;;;;;2.75;1.08;;;5.90;99.90;;;;;;5043804;28;20068;-72
2021/04/04 02:25:14;;;;;;;8.50;1.88;;;5.90;99.90;;;;;;5044430;28;20021;-74
2021/04/04 02:27:44;;;;;;;2.65;1.02;;;5.90;99.90;;;;;;5044486;28;20044;-72
2021/04/04 02:30:13;;;;;;;4.75;1.33;;;5.90;99.90;;;;;;5045045;28;20033;-71
2021/04/04 02:32:49;;;;;;;10.75;1.90;;;5.80;99.90;;;;;;5062322;28;20075;-72
2021/04/04 02:35:22;;;;;;;7.63;1.88;;;5.80;99.90;;;;;;5065070;28;20029;-72
2021/04/04 02:37:48;;;;;;;7.35;1.65;;;5.90;99.90;;;;;;5063622;28;20119;-72
2021/04/04 02:40:15;;;;;;;6.90;1.02;;;5.80;99.90;;;;;;5064662;28;20025;-73
2021/04/04 02:42:43;;;;;;;9.25;2.97;;;5.90;99.90;;;;;;5064853;28;20039;-72
2021/04/04 02:45:10;;;;;;;19.88;4.65;;;5.90;99.90;;;;;;5064743;28;20032;-72
2021/04/04 02:47:50;;;;;;;16.50;5.35;;;5.80;99.90;;;;;;5064691;28;20461;-72
2021/04/04 02:50:18;;;;;;;10.05;2.33;;;5.80;99.90;;;;;;5064834;28;20033;-72
2021/04/04 02:52:45;;;;;;;17.00;2.25;;;5.70;99.90;;;;;;5058459;28;20628;-73
2021/04/04 02:55:17;;;;;;;4.88;1.65;;;5.80;99.90;;;;;;5025210;28;20040;-72
2021/04/04 02:57:44;;;;;;;17.27;2.90;;;5.70;99.90;;;;;;5024194;28;20030;-71
2021/04/04 03:00:20;;;;;;;9.20;0.93;;;5.80;99.90;;;;;;5024160;28;20026;-71
2021/04/04 03:02:47;;;;;;;15.05;2.55;;;5.80;99.90;;;;;;5023986;28;20032;-70
2021/04/04 03:05:13;;;;;;;4.90;1.30;;;5.80;99.90;;;;;;5024031;28;20524;-72
2021/04/04 03:07:42;;;;;;;8.25;2.55;;;5.80;99.90;;;;;;5027967;28;20112;-72
2021/04/04 03:10:12;;;;;;;10.32;2.00;;;5.70;99.90;;;;;;5064550;28;20029;-71
2021/04/04 03:12:39;;;;;;;14.48;2.30;;;5.80;99.90;;;;;;5064241;28;20033;-70
2021/04/04 03:15:09;;;;;;;3.92;1.52;;;5.80;99.90;;;;;;5045424;28;20026;-71
2021/04/04 03:17:39;;;;;;;4.95;1.08;;;5.80;99.90;;;;;;5044042;28;20042;-70
2021/04/04 03:20:08;;;;;;;14.15;1.58;;;5.70;99.90;;;;;;5043115;28;20075;-72
2021/04/04 03:22:36;;;;;;;3.00;1.52;;;5.70;99.90;;;;;;5044251;28;20021;-73
2021/04/04 03:25:04;;;;;;;2.38;1.20;;;5.70;99.90;;;;;;5044067;28;20026;-71
2021/04/04 03:27:30;;;;;;;15.65;1.70;;;5.70;99.90;;;;;;5044151;28;20046;-73
2021/04/04 03:29:56;;;;;;;11.40;2.92;;;5.70;99.90;;;;;;5044508;28;20367;-70
2021/04/04 03:32:22;;;;;;;6.40;1.27;;;5.70;99.90;;;;;;5058857;28;20035;-71
2021/04/04 03:34:48;;;;;;;6.95;2.42;;;5.70;99.90;;;;;;5064299;28;20068;-72
2021/04/04 03:37:14;;;;;;;5.68;1.33;;;5.70;99.90;;;;;;5064007;28;20150;-72
2021/04/04 03:39:40;;;;;;;9.18;1.33;;;5.70;99.90;;;;;;5064209;28;20474;-72
2021/04/04 03:42:07;;;;;;;12.13;1.52;;;5.70;99.90;;;;;;5064106;28;20021;-72
2021/04/04 03:44:39;;;;;;;10.23;1.95;;;5.70;99.90;;;;;;5063967;28;20513;-71
2021/04/04 03:47:05;;;;;;;5.93;1.17;;;5.80;99.90;;;;;;5064169;28;20142;-71
2021/04/04 03:49:33;;;;;;;2.95;1.25;;;5.80;99.90;;;;;;5062979;28;20124;-74
2021/04/04 03:52:00;;;;;;;2.83;1.40;;;5.70;99.90;;;;;;5063036;28;20120;-71
2021/04/04 03:54:30;;;;;;;10.63;2.40;;;5.80;99.90;;;;;;5064342;28;20029;-72
2021/04/04 03:56:58;;;;;;;4.80;1.33;;;5.70;99.90;;;;;;5064111;28;20546;-73
2021/04/04 03:59:27;;;;;;;4.35;1.42;;;5.90;99.90;;;;;;5062866;28;20059;-70
2021/04/04 04:01:55;;;;;;;9.63;2.38;;;5.80;99.90;;;;;;5064150;28;20131;-72
2021/04/04 04:04:21;;;;;;;2.78;1.27;;;5.70;99.90;;;;;;5063279;28;20032;-71
2021/04/04 04:06:49;;;;;;;9.75;1.73;;;5.70;99.90;;;;;;5043962;28;20044;-72
2021/04/04 04:09:16;;;;;;;4.85;1.50;;;5.70;99.90;;;;;;5044097;28;20033;-72
2021/04/04 04:11:44;;;;;;;6.28;1.05;;;5.70;99.90;;;;;;5046027;28;20025;-72
2021/04/04 04:14:13;;;;;;;6.38;1.85;;;5.70;99.90;;;;;;5047654;28;20029;-71
2021/04/04 04:16:39;;;;;;;12.18;2.13;;;5.70;99.90;;;;;;5047265;28;20025;-71
2021/04/04 04:19:06;;;;;;;9.18;1.80;;;5.70;99.90;;;;;;5047437;28;20057;-72
2021/04/04 04:21:33;;;;;;;4.80;1.20;;;5.60;99.90;;;;;;5047484;28;20026;-72
2021/04/04 04:24:01;;;;;;;3.08;1.30;;;5.60;99.90;;;;;;5047734;28;20056;-73
2021/04/04 04:26:28;;;;;;;14.18;1.15;;;5.70;99.90;;;;;;5046184;28;20045;-73
2021/04/04 04:28:54;;;;;;;9.48;2.38;;;5.60;99.90;;;;;;5047431;28;20026;-71
2021/04/04 04:31:23;;;;;;;3.83;1.52;;;5.60;99.90;;;;;;5047434;28;20034;-70
2021/04/04 04:33:53;;;;;;;5.80;1.52;;;5.50;99.90;;;;;;5047425;28;20045;-71
2021/04/04 04:36:21;;;;;;;8.18;2.58;;;5.60;99.90;;;;;;5046057;28;20038;-72
2021/04/04 04:38:51;;;;;;;9.10;1.75;;;5.60;99.90;;;;;;5047461;28;20034;-71
2021/04/04 04:41:19;;;;;;;6.65;1.15;;;5.60;99.90;;;;;;5047025;28;20022;-71
2021/04/04 04:43:49;;;;;;;8.45;1.83;;;5.60;99.90;;;;;;5046999;28;20052;-72
2021/04/04 04:46:16;;;;;;;5.50;1.55;;;5.60;99.90;;;;;;5047076;28;20041;-71
2021/04/04 04:48:42;;;;;;;13.15;2.33;;;5.60;99.90;;;;;;5047111;28;20117;-74
2021/04/04 04:51:09;;;;;;;4.57;1.48;;;5.60;99.90;;;;;;5047085;28;20025;-72
2021/04/04 04:53:35;;;;;;;10.35;1.92;;;5.60;99.90;;;;;;5045417;28;20029;-71
2021/04/04 04:56:03;;;;;;;3.38;1.17;;;5.60;99.90;;;;;;5046836;28;20077;-72
2021/04/04 04:58:30;;;;;;;4.82;2.22;;;5.70;99.90;;;;;;5047243;28;20097;-70
2021/04/04 05:01:13;;;;;;;9.95;2.00;;;5.70;99.90;;;;;;5046690;28;20097;-73
2021/04/04 05:03:38;;;;;;;2.70;1.33;;;5.70;99.90;;;;;;5046863;28;20029;-70
2021/04/04 05:06:10;;;;;;;5.25;1.05;;;5.70;99.90;;;;;;5047725;28;20534;-71
2021/04/04 05:08:42;;;;;;;0.82;0.55;;;5.70;99.90;;;;;;5047089;28;20029;-69
2021/04/04 05:11:10;;;;;;;10.75;1.88;;;5.80;99.90;;;;;;5045333;28;20410;-71
2021/04/04 05:13:40;;;;;;;4.38;1.15;;;5.70;99.90;;;;;;5045149;28;20025;-70
2021/04/04 05:16:14;;;;;;;1.85;1.13;;;5.70;99.90;;;;;;5045016;28;20036;-71
2021/04/04 05:18:52;;;;;;;2.03;1.17;;;5.70;99.90;;;;;;5044893;28;20049;-70
2021/04/04 05:21:39;;;;;;;4.93;1.48;;;5.70;99.90;;;;;;5046482;28;20029;-70
2021/04/04 05:24:11;;;;;;;13.85;2.05;;;5.70;99.90;;;;;;5045575;28;20056;-70
2021/04/04 05:26:44;;;;;;;11.85;1.70;;;5.70;99.90;;;;;;5046093;28;20045;-71
2021/04/04 05:29:14;;;;;;;7.22;1.50;;;5.60;99.90;;;;;;5046224;28;20037;-70
2021/04/04 05:31:48;;;;;;;6.50;2.00;;;5.60;99.90;;;;;;5044838;28;20474;-71
2021/04/04 05:34:15;;;;;;;5.38;3.10;;;5.60;99.90;;;;;;5044770;28;20018;-71
2021/04/04 05:36:54;;;;;;;8.98;2.63;;;5.60;99.90;;;;;;5046002;28;20053;-70
2021/04/04 05:39:26;;;;;;;6.63;2.00;;;5.60;99.90;;;;;;5046116;28;20034;-71
2021/04/04 05:41:56;;;;;;;3.50;1.25;;;5.60;99.90;;;;;;5046102;28;20060;-71
2021/04/04 05:44:47;;;;;;;4.32;1.25;;;5.60;99.90;;;;;;5045970;28;20055;-71
2021/04/04 05:47:28;;;;;;;3.90;1.13;;;5.50;99.90;;;;;;5044541;28;20042;-71
2021/04/04 05:50:05;;;;;;;10.75;1.73;;;5.50;99.90;;;;;;5046088;28;20371;-72
2021/04/04 05:53:02;;;;;;;7.35;1.75;;;5.50;99.90;;;;;;5055829;28;20093;-70
2021/04/04 05:56:02;;;;;;;3.55;1.75;;;5.50;99.90;;;;;;5060533;28;20048;-76
2021/04/04 05:58:38;;;;;;;5.85;1.90;;;5.40;99.90;;;;;;5054615;28;20036;-75
2021/04/04 06:01:29;;;;;;;1.88;1.00;;;5.40;99.90;;;;;;5054016;28;20040;-72
2021/04/04 06:04:26;;;;;;;5.72;1.90;;;5.50;99.90;;;;;;5047700;28;20405;-75
2021/04/04 06:07:04;;;;;;;13.52;2.15;;;5.40;99.90;;;;;;5054643;28;20134;-73
2021/04/04 06:09:48;;;;;;;4.07;1.85;;;5.40;99.90;;;;;;5061191;28;20500;-74
2021/04/04 06:12:13;;;;;;;12.20;2.15;;;5.40;99.90;;;;;;5044955;28;20034;-73
2021/04/04 06:15:22;;;;;;;8.73;3.17;;;5.40;99.90;;;;;;5058036;28;20064;-73
2021/04/04 06:18:11;;;;;;;14.52;2.75;;;5.40;99.90;;;;;;5064395;28;20136;-72
2021/04/04 06:20:57;;;;;;;7.95;2.28;;;5.40;99.90;;;;;;5064846;28;20041;-72
2021/04/04 06:23:43;;;;;;;16.80;2.88;;;5.30;99.90;;;;;;5063539;28;20021;-74
2021/04/04 06:26:23;;;;;;;8.15;2.33;;;5.30;99.90;;;;;;5063486;28;20111;-73
2021/04/04 06:28:57;;;;;;;4.38;2.47;;;5.30;99.90;;;;;;5054775;28;20037;-74
2021/04/04 06:31:41;;;;;;;5.38;2.92;;;5.40;99.90;;;;;;5051131;28;20049;-73
2021/04/04 06:34:25;;;;;;;5.20;2.47;;;5.40;99.90;;;;;;5063328;28;20029;-73
2021/04/04 06:37:07;;;;;;;3.67;2.03;;;5.50;99.90;;;;;;5065317;28;20029;-73
2021/04/04 06:39:44;;;;;;;5.93;2.28;;;5.40;99.90;;;;;;5063638;28;20095;-73
2021/04/04 06:42:15;;;;;;;7.53;2.95;;;5.40;99.90;;;;;;5064858;28;20029;-73
2021/04/04 06:44:50;;;;;;;6.97;2.40;;;5.30;99.90;;;;;;5063445;28;20093;-72
2021/04/04 06:47:39;;;;;;;14.57;3.15;;;5.30;99.90;;;;;;5064825;28;20041;-73
2021/04/04 06:50:20;;;;;;;3.50;1.73;;;5.30;99.90;;;;;;5064695;28;20528;-73
2021/04/04 06:53:08;;;;;;;7.90;3.00;;;5.40;99.90;;;;;;5064802;28;20029;-73
2021/04/04 06:56:02;;;;;;;6.30;2.75;;;5.40;99.90;;;;;;5064635;28;20033;-74
2021/04/04 06:59:16;;;;;;;5.82;2.13;;;5.40;99.90;;;;;;5064729;28;20029;-74
2021/04/04 07:01:59;;;;;;;7.95;2.83;;;5.40;99.90;;;;;;5062323;28;20035;-73
2021/04/04 07:04:38;;;;;;;9.35;2.90;;;5.40;99.90;;;;;;5061664;28;20093;-74
2021/04/04 07:07:31;;;;;;;11.75;3.08;;;5.50;99.90;;;;;;5050972;28;20049;-74
2021/04/04 07:10:27;;;;;;;6.80;2.80;;;5.50;99.90;;;;;;5050471;28;20036;-74
2021/04/04 07:13:24;;;;;;;9.90;2.15;;;5.60;99.90;;;;;;5044865;28;20064;-74
2021/04/04 07:16:06;;;;;;;6.60;2.38;;;5.60;99.90;;;;;;5044089;28;20026;-74
2021/04/04 07:19:09;;;;;;;13.00;3.05;;;5.60;99.90;;;;;;5044348;28;20050;-75
2021/04/04 07:21:59;;;;;;;11.60;3.08;;;5.70;99.90;;;;;;5046261;28;20034;-73
2021/04/04 07:24:52;;;;;;;4.13;1.80;;;5.80;99.90;;;;;;5044662;28;20029;-74
2021/04/04 07:27:56;;;;;;;10.90;2.38;;;5.80;99.90;;;;;;5044122;28;20100;-73
2021/04/04 07:30:41;;;;;;;18.08;1.85;;;5.80;99.90;;;;;;5044485;28;20088;-73
2021/04/04 07:33:09;;;;;;;4.65;1.85;;;5.90;99.90;;;;;;5044358;28;20026;-74
2021/04/04 07:36:12;;;;;;;7.10;2.08;;;5.90;99.90;;;;;;5044432;28;20034;-73
2021/04/04 07:39:03;;;;;;;16.73;3.10;;;5.90;99.90;;;;;;5042953;28;20033;-73
2021/04/04 07:41:39;;;;;;;5.05;2.15;;;6.00;99.90;;;;;;5044164;28;20025;-73
2021/04/04 07:44:07;;;;;;;7.57;2.72;;;6.00;99.90;;;;;;5052754;28;20025;-72
2021/04/04 07:46:38;;;;;;;6.55;2.63;;;6.00;99.90;;;;;;5053848;28;20063;-73
2021/04/04 07:49:31;;;;;;;9.45;3.35;;;5.90;99.90;;;;;;5066490;28;20076;-73
2021/04/04 07:52:01;;;;;;;19.48;2.63;;;5.90;99.90;;;;;;5067149;28;20036;-73
2021/04/04 07:54:37;;;;;;;12.82;2.15;;;5.90;99.90;;;;;;5067946;28;20021;-75
2021/04/04 07:57:08;;;;;;;12.50;2.80;;;5.90;99.90;;;;;;5068011;28;20025;-74
2021/04/04 07:59:50;;;;;;;12.98;2.80;;;5.90;99.90;;;;;;5067903;28;20025;-74
2021/04/04 08:02:30;;;;;;;8.73;2.83;;;6.00;99.90;;;;;;5068026;28;20029;-73
2021/04/04 08:05:09;;;;;;;4.75;1.90;;;6.10;99.90;;;;;;5067149;28;20139;-74
2021/04/04 08:07:59;;;;;;;13.45;2.42;;;6.10;99.90;;;;;;5067855;28;20087;-74
2021/04/04 08:10:40;;;;;;;8.20;2.95;;;6.20;99.90;;;;;;5068043;28;20074;-73
2021/04/04 08:13:45;;;;;;;5.78;2.55;;;6.20;99.90;;;;;;5067624;28;20049;-73
2021/04/04 08:16:42;;;;;;;7.55;2.05;;;6.20;99.90;;;;;;5067019;28;20037;-73
2021/04/04 08:19:09;;;;;;;10.43;3.50;;;6.30;99.90;;;;;;5057416;28;20482;-72
2021/04/04 08:21:38;;;;;;;5.55;1.80;;;6.30;99.90;;;;;;5051098;28;20497;-71
2021/04/04 08:24:17;;;;;;;13.40;3.15;;;6.30;99.90;;;;;;5058553;28;20034;-73
2021/04/04 08:27:10;;;;;;;10.15;2.45;;;6.20;99.90;;;;;;5047006;28;20040;-72
2021/04/04 08:30:04;;;;;;;8.00;2.35;;;6.30;99.90;;;;;;5047241;28;20108;-74
2021/04/04 08:32:47;;;;;;;9.50;3.50;;;6.30;99.90;;;;;;5047805;28;20038;-74
2021/04/04 08:35:25;;;;;;;9.40;2.13;;;6.30;99.90;;;;;;5046496;28;20035;-73
2021/04/04 08:38:00;;;;;;;5.55;2.58;;;6.50;99.90;;;;;;5047442;28;20029;-73
2021/04/04 08:40:26;;;;;;;5.85;2.67;;;6.50;99.90;;;;;;5046964;28;20037;-73
2021/04/04 08:42:52;;;;;;;12.63;2.58;;;6.70;99.90;;;;;;5045777;28;20033;-73
2021/04/04 08:45:35;;;;;;;5.80;2.23;;;6.60;99.90;;;;;;5046913;28;20029;-73
2021/04/04 08:48:02;;;;;;;9.48;2.45;;;6.70;99.90;;;;;;5047061;28;20272;-73
2021/04/04 08:50:29;;;;;;;4.97;1.90;;;6.80;99.90;;;;;;5045714;28;20116;-73
2021/04/04 08:53:19;;;;;;;4.65;1.88;;;6.80;99.90;;;;;;5045099;28;20027;-73
2021/04/04 08:55:48;;;;;;;5.95;2.65;;;6.80;99.90;;;;;;5051369;28;20040;-73
2021/04/04 08:58:19;;;;;;;8.93;2.58;;;6.80;99.90;;;;;;5066218;28;20091;-73
2021/04/04 09:00:46;;;;;;;14.93;2.92;;;6.80;99.90;;;;;;5064810;28;20029;-73
2021/04/04 09:03:21;;;;;;;10.77;2.28;;;6.80;99.90;;;;;;5066705;28;20029;-73
2021/04/04 09:05:47;;;;;;;;;;;6.80;99.90;;;;;;5067185;28;20041;-72
2021/04/04 09:08:15;;;;;;;12.02;2.78;;;6.90;99.90;;;;;;5063338;28;19911;-72
2021/04/04 09:10:43;;;;;;;4.97;2.15;;;6.90;99.90;;;;;;5046609;28;20025;-72
2021/04/04 09:13:11;;;;;;;8.82;2.42;;;7.00;99.90;;;;;;5046552;28;20060;-72
2021/04/04 09:15:50;;;;;;;7.47;2.20;;;7.00;99.90;;;;;;5034354;28;20030;-73
2021/04/04 09:18:17;;;;;;;9.48;2.42;;;7.00;99.90;;;;;;5032508;28;20049;-74
2021/04/04 09:20:45;;;;;;;3.50;1.55;;;7.10;99.90;;;;;;5050968;28;20102;-72
2021/04/04 09:23:13;;;;;;;6.70;2.25;;;7.10;99.90;;;;;;5045183;28;20109;-71
2021/04/04 09:26:02;;;;;;;10.07;2.83;;;7.10;99.90;;;;;;5050759;28;20021;-75
2021/04/04 09:28:35;;;;;;;4.97;1.48;;;7.10;99.90;;;;;;5063330;28;20048;-72
2021/04/04 09:31:05;;;;;;;5.07;2.35;;;7.10;99.90;;;;;;5065916;28;20551;-74
2021/04/04 09:33:37;;;;;;;3.20;1.40;;;7.10;99.90;;;;;;5063796;28;20029;-74
2021/04/04 09:36:06;;;;;;;15.68;2.40;;;7.00;99.90;;;;;;5064890;28;20025;-72
2021/04/04 09:38:38;;;;;;;9.95;2.03;;;7.10;99.90;;;;;;5048410;28;20017;-72
2021/04/04 09:41:06;;;;;;;6.35;1.95;;;7.10;99.90;;;;;;5060273;28;20033;-71
2021/04/04 09:43:59;;;;;;;4.75;1.90;;;7.20;99.90;;;;;;5055631;28;20401;-71
2021/04/04 09:46:30;;;;;;;12.82;2.08;;;7.10;99.90;;;;;;5025375;28;20427;-73
2021/04/04 09:48:56;;;;;;;12.95;2.70;;;7.10;99.90;;;;;;5039874;28;20021;-71
2021/04/04 09:51:22;;;;;;;16.65;2.65;;;7.20;99.90;;;;;;5066026;28;20076;-70
2021/04/04 09:53:52;;;;;;;4.00;1.80;;;7.10;99.90;;;;;;5065913;28;20414;-71
2021/04/04 09:56:27;;;;;;;4.63;2.42;;;7.10;99.90;;;;;;5051595;28;20193;-72
2021/04/04 09:58:52;;;;;;;5.45;1.90;;;7.20;99.90;;;;;;5053695;28;20025;-72
2021/04/04 10:01:23;;;;;;;3.20;1.52;;;7.30;99.90;;;;;;5052242;28;20088;-71
2021/04/04 10:04:04;;;;;;;7.57;2.13;;;7.40;99.90;;;;;;5037525;28;20041;-72
2021/04/04 10:06:33;;;;;;;3.55;1.67;;;7.50;99.90;;;;;;5044927;28;20037;-73
2021/04/04 10:09:08;;;;;;;5.68;1.77;;;7.60;99.90;;;;;;5044936;28;20025;-72
2021/04/04 10:11:35;;;;;;;10.05;1.95;;;7.80;99.90;;;;;;5035139;28;20036;-73
2021/04/04 10:14:15;;;;;;;8.23;1.95;;;8.00;99.90;;;;;;5048277;28;20053;-73
2021/04/04 10:16:44;;;;;;;5.88;1.55;;;8.10;99.90;;;;;;5058085;28;20041;-73
2021/04/04 10:19:13;;;;;;;14.82;2.17;;;8.20;99.90;;;;;;5059070;28;20139;-71
2021/04/04 10:21:41;;;;;;;16.15;1.67;;;8.30;99.90;;;;;;5063585;28;20025;-71
2021/04/04 10:24:28;;;;;;;11.10;1.83;;;8.30;99.90;;;;;;5063990;28;20029;-72
2021/04/04 10:27:26;;;;;;;1.65;1.10;;;8.40;99.90;;;;;;5046545;28;20041;-73
2021/04/04 10:30:17;;;;;;;4.20;1.77;;;8.40;99.90;;;;;;5056246;28;20025;-72
2021/04/04 10:32:48;;;;;;;2.00;1.50;;;8.30;99.90;;;;;;5057739;28;20041;-72
2021/04/04 10:35:27;;;;;;;10.45;1.75;;;8.30;99.90;;;;;;5045081;28;20025;-71
2021/04/04 10:38:02;;;;;;;9.50;2.03;;;8.20;99.90;;;;;;5045482;28;20036;-72
2021/04/04 10:40:58;;;;;;;7.60;1.77;;;8.10;99.90;;;;;;5062024;28;20029;-74
2021/04/04 10:43:41;;;;;;;8.88;1.83;;;8.10;99.90;;;;;;5065177;28;20078;-71
2021/04/04 10:46:12;;;;;;;2.50;1.35;;;8.10;99.90;;;;;;5063287;28;20072;-72
2021/04/04 10:48:40;;;;;;;5.55;1.63;;;8.10;99.90;;;;;;5047024;28;20033;-72
2021/04/04 10:51:08;;;;;;;13.80;2.80;;;8.10;99.90;;;;;;5049163;28;20043;-71
2021/04/04 10:53:35;;;;;;;7.38;1.83;;;8.20;99.90;;;;;;5064705;28;20035;-73
2021/04/04 10:56:02;;;;;;;3.92;1.58;;;8.20;99.90;;;;;;5061083;28;20454;-72
2021/04/04 10:58:30;;;;;;;11.40;1.42;;;8.20;99.90;;;;;;5044644;28;20033;-73
2021/04/04 11:01:00;;;;;;;7.15;1.58;;;8.10;99.90;;;;;;5044887;28;20021;-73
2021/04/04 11:03:28;;;;;;;5.03;1.88;;;8.10;99.90;;;;;;5044938;28;20033;-72
2021/04/04 11:05:54;;;;;;;4.60;2.10;;;8.00;99.90;;;;;;5045064;28;20033;-73
2021/04/04 11:08:22;;;;;;;9.52;2.30;;;8.00;99.90;;;;;;5044933;28;20021;-73
2021/04/04 11:10:49;;;;;;;4.18;1.65;;;8.00;99.90;;;;;;5045907;28;20059;-70
2021/04/04 11:13:16;;;;;;;3.17;1.27;;;8.00;99.90;;;;;;5046205;28;20049;-73
2021/04/04 11:15:58;;;;;;;6.15;1.83;;;7.90;99.90;;;;;;5049310;28;20033;-70
2021/04/04 11:18:31;;;;;;;5.20;2.38;;;8.00;99.90;;;;;;5060463;28;20060;-71
2021/04/04 11:21:04;;;;;;;11.43;2.42;;;8.10;99.90;;;;;;5032845;28;20032;-74
2021/04/04 11:23:32;;;;;;;4.93;1.63;;;8.20;99.90;;;;;;5028973;28;20116;-73
2021/04/04 11:26:00;;;;;;;7.05;1.67;;;8.20;99.90;;;;;;5028357;28;20037;-74
2021/04/04 11:28:26;;;;;;;11.90;2.85;;;8.20;99.90;;;;;;5031624;28;20398;-73
2021/04/04 11:30:55;;;;;;;6.78;2.25;;;8.30;99.90;;;;;;5027126;28;20030;-73
2021/04/04 11:33:24;;;;;;;10.48;1.80;;;8.30;99.90;;;;;;5031077;28;20037;-74
2021/04/04 11:36:13;;;;;;;2.78;1.40;;;8.30;99.90;;;;;;5068373;28;20649;-72
2021/04/04 11:38:49;;;;;;;5.15;1.88;;;8.40;99.90;;;;;;5048090;28;20104;-72
2021/04/04 11:41:27;;;;;;;5.15;1.73;;;8.50;99.90;;;;;;5046838;28;20575;-72
2021/04/04 11:44:22;;;;;;;5.13;1.48;;;8.40;99.90;;;;;;5046852;28;20048;-73
2021/04/04 11:46:59;;;;;;;11.02;2.13;;;8.40;99.90;;;;;;5048024;28;20041;-73
2021/04/04 11:49:28;;;;;;;6.30;2.50;;;8.50;99.90;;;;;;5048446;28;20025;-72
2021/04/04 11:51:55;;;;;;;3.08;1.55;;;8.50;99.90;;;;;;5049476;28;20035;-72
2021/04/04 11:54:50;;;;;;;8.68;2.15;;;8.40;99.90;;;;;;5041966;28;20006;-74
2021/04/04 11:57:31;;;;;;;3.45;1.73;;;8.40;99.90;;;;;;5046752;28;20045;-70
2021/04/04 12:00:00;;;;;;;9.63;2.17;;;8.30;99.90;;;;;;5029923;28;20064;-74
2021/04/04 12:02:29;;;;;;;2.38;1.33;;;8.20;99.90;;;;;;5028135;28;20052;-73
2021/04/04 12:05:13;;;;;;;2.22;1.20;;;8.30;99.90;;;;;;5038147;28;20029;-74
2021/04/04 12:07:45;;;;;;;8.70;2.83;;;8.20;99.90;;;;;;5046514;28;20547;-71
2021/04/04 12:10:13;;;;;;;6.53;2.10;;;8.20;99.90;;;;;;5047766;28;20026;-72
2021/04/04 12:12:39;;;;;;;8.52;1.80;;;8.30;99.90;;;;;;5047516;28;20100;-73
2021/04/04 12:15:06;;;;;;;6.22;2.78;;;8.30;99.90;;;;;;5059783;28;20029;-73
2021/04/04 12:17:32;;;;;;;4.47;1.98;;;8.30;99.90;;;;;;5056276;28;20045;-74
2021/04/04 12:20:00;;;;;;;5.03;1.75;;;8.40;99.90;;;;;;5047535;28;20450;-73
2021/04/04 12:22:42;;;;;;;3.60;1.67;;;8.50;99.90;;;;;;5047907;28;20022;-74
2021/04/04 12:25:38;;;;;;;7.45;1.48;;;8.60;99.90;;;;;;5051601;28;20078;-73
2021/04/04 12:28:04;;;;;;;4.63;2.03;;;8.70;99.90;;;;;;5065559;28;20051;-72
2021/04/04 12:30:32;;;;;;;5.82;1.83;;;8.70;99.90;;;;;;5067456;28;20029;-73
2021/04/04 12:33:09;;;;;;;12.27;1.70;;;8.60;99.90;;;;;;5066862;28;20036;-73
2021/04/04 12:35:37;;;;;;;1.48;0.95;;;8.50;99.90;;;;;;5067065;28;20410;-72
2021/04/04 12:38:03;;;;;;;12.63;1.77;;;8.60;99.90;;;;;;5067215;28;20040;-74
2021/04/04 12:40:31;;;;;;;3.03;1.20;;;8.60;99.90;;;;;;5067388;28;20044;-75
2021/04/04 12:42:59;;;;;;;2.72;1.50;;;8.70;99.90;;;;;;5048770;28;20036;-75
2021/04/04 12:45:30;;;;;;;6.05;1.40;;;8.90;99.90;;;;;;5047459;28;20040;-74
2021/04/04 12:47:57;;;;;;;2.00;1.33;;;9.00;99.90;;;;;;5047147;28;20029;-73
2021/04/04 12:50:23;;;;;;;6.75;1.50;;;9.00;99.90;;;;;;5047430;28;20086;-73
2021/04/04 12:52:53;;;;;;;3.22;1.92;;;9.10;99.90;;;;;;5047084;28;20021;-74
2021/04/04 12:55:30;;;;;;;6.32;2.22;;;8.90;99.90;;;;;;5046833;28;20085;-74
2021/04/04 12:58:07;;;;;;;3.25;1.73;;;8.90;99.90;;;;;;5046878;28;20075;-71
2021/04/04 13:00:45;;;;;;;2.40;1.55;;;8.90;99.90;;;;;;5045451;28;20402;-74
2021/04/04 13:03:20;;;;;;;22.70;3.88;;;8.90;99.90;;;;;;5046778;28;20026;-73
2021/04/04 13:05:52;;;;;;;3.65;1.65;;;8.80;99.90;;;;;;5046477;28;20039;-74
2021/04/04 13:08:27;;;;;;;13.25;1.70;;;8.70;99.90;;;;;;5046449;28;20036;-72
2021/04/04 13:11:09;;;;;;;5.15;1.60;;;8.60;99.90;;;;;;5046454;28;20056;-73
2021/04/04 13:13:37;;;;;;;6.40;1.88;;;8.60;99.90;;;;;;5046679;28;20060;-72
2021/04/04 13:16:11;;;;;;;9.50;2.92;;;8.60;99.90;;;;;;5045893;28;20044;-76
2021/04/04 13:18:40;;;;;;;12.23;1.63;;;8.70;99.90;;;;;;5046124;28;20057;-74
2021/04/04 13:21:17;;;;;;;8.30;2.65;;;8.70;99.90;;;;;;5045877;28;20067;-74
2021/04/04 13:23:46;;;;;;;2.20;1.38;;;8.70;99.90;;;;;;5046201;28;20179;-73
2021/04/04 13:26:17;;;;;;;2.92;1.60;;;8.70;99.90;;;;;;5046294;28;20030;-73
2021/04/04 13:28:43;;;;;;;9.68;1.88;;;8.60;99.90;;;;;;5044509;28;20033;-73